KAUG 221153Z AUTO 36007KT 10SM OVC120 M01/M12 A3062 RMK AO2 SLP372 T10061117 10033 21006 53022